sensor_id;sensor_type;location;lat;lon;timestamp;pressure;altitude;pressure_sealevel;temperature;humidity
3434;BME280;1730;41.932;25.548;2022-10-16T00:00:34;100054.37;;;9.24;100.00
3434;BME280;1730;41.932;25.548;2022-10-16T00:03:00;99916.09;;;8.51;100.00
3434;BME280;1730;41.932;25.548;2022-10-16T00:05:25;99911.47;;;8.53;100.00
3434;BME280;1730;41.932;25.548;2022-10-16T00:07:51;100027.59;;;9.22;100.00
3434;BME280;1730;41.932;25.548;2022-10-16T00:10:16;99868.44;;;8.33;100.00
3434;BME280;1730;41.932;25.548;2022-10-16T00:12:42;100056.59;;;9.19;100.00
3434;BME280;1730;41.932;25.548;2022-10-16T00:15:08;99870.87;;;8.13;100.00
3434;BME280;1730;41.932;25.548;2022-10-16T00:17:33;100063.87;;;9.39;100.00
3434;BME280;1730;41.932;25.548;2022-10-16T00:19:59;100030.16;;;9.24;100.00
3434;BME280;1730;41.932;25.548;2022-10-16T00:22:24;100053.63;;;9.33;100.00
3434;BME280;1730;41.932;25.548;2022-10-16T00:24:50;100051.19;;;9.30;100.00
3434;BME280;1730;41.932;25.548;2022-10-16T00:27:16;100058.88;;;9.34;100.00
3434;BME280;1730;41.932;25.548;2022-10-16T00:29:42;100044.69;;;9.32;100.00
3434;BME280;1730;41.932;25.548;2022-10-16T00:32:08;99997.06;;;8.80;100.00
3434;BME280;1730;41.932;25.548;2022-10-16T00:34:34;99778.75;;;7.37;100.00
3434;BME280;1730;41.932;25.548;2022-10-16T00:36:59;100012.59;;;8.66;100.00
3434;BME280;1730;41.932;25.548;2022-10-16T00:39:25;100071.88;;;9.18;100.00
3434;BME280;1730;41.932;25.548;2022-10-16T00:41:51;99799.22;;;7.27;100.00
3434;BME280;1730;41.932;25.548;2022-10-16T00:47:13;100088.72;;;8.88;100.00
3434;BME280;1730;41.932;25.548;2022-10-16T00:49:40;100084.34;;;8.76;100.00
3434;BME280;1730;41.932;25.548;2022-10-16T00:52:05;99628.13;;;6.09;100.00
3434;BME280;1730;41.932;25.548;2022-10-16T00:54:32;100107.19;;;8.59;100.00
3434;BME280;1730;41.932;25.548;2022-10-16T00:57:01;100105.59;;;8.79;100.00
3434;BME280;1730;41.932;25.548;2022-10-16T00:59:32;100102.06;;;8.68;100.00
3434;BME280;1730;41.932;25.548;2022-10-16T01:01:58;100136.88;;;8.69;100.00
3434;BME280;1730;41.932;25.548;2022-10-16T01:04:26;100112.56;;;8.82;100.00
3434;BME280;1730;41.932;25.548;2022-10-16T01:09:54;100113.50;;;8.92;100.00
3434;BME280;1730;41.932;25.548;2022-10-16T01:13:00;100116.72;;;8.64;100.00
3434;BME280;1730;41.932;25.548;2022-10-16T01:20:29;100127.25;;;8.55;100.00
3434;BME280;1730;41.932;25.548;2022-10-16T01:28:11;100149.16;;;8.27;100.00
3434;BME280;1730;41.932;25.548;2022-10-16T01:30:42;100153.84;;;8.36;100.00
3434;BME280;1730;41.932;25.548;2022-10-16T01:33:15;100034.91;;;7.66;100.00
3434;BME280;1730;41.932;25.548;2022-10-16T01:35:46;100175.41;;;8.24;100.00
3434;BME280;1730;41.932;25.548;2022-10-16T01:38:19;100176.37;;;8.23;100.00
3434;BME280;1730;41.932;25.548;2022-10-16T01:40:49;100177.72;;;8.28;100.00
3434;BME280;1730;41.932;25.548;2022-10-16T01:43:27;100210.16;;;8.38;100.00
3434;BME280;1730;41.932;25.548;2022-10-16T01:45:57;100044.16;;;7.62;100.00
3434;BME280;1730;41.932;25.548;2022-10-16T01:48:24;100159.59;;;8.54;100.00
3434;BME280;1730;41.932;25.548;2022-10-16T01:51:04;100162.53;;;8.51;100.00
3434;BME280;1730;41.932;25.548;2022-10-16T01:53:31;99852.88;;;6.69;100.00
3434;BME280;1730;41.932;25.548;2022-10-16T01:55:58;99783.69;;;6.28;100.00
3434;BME280;1730;41.932;25.548;2022-10-16T01:58:26;100155.31;;;8.29;100.00
3434;BME280;1730;41.932;25.548;2022-10-16T02:00:54;100047.09;;;7.59;100.00
3434;BME280;1730;41.932;25.548;2022-10-16T02:03:20;100139.63;;;8.23;100.00
3434;BME280;1730;41.932;25.548;2022-10-16T02:08:14;99979.31;;;7.33;100.00
3434;BME280;1730;41.932;25.548;2022-10-16T02:10:40;100156.13;;;8.30;100.00
3434;BME280;1730;41.932;25.548;2022-10-16T02:13:10;100195.00;;;8.48;100.00
3434;BME280;1730;41.932;25.548;2022-10-16T02:15:37;100194.41;;;8.33;100.00
3434;BME280;1730;41.932;25.548;2022-10-16T02:18:05;100175.38;;;8.58;100.00
3434;BME280;1730;41.932;25.548;2022-10-16T02:20:54;100160.94;;;8.37;100.00
3434;BME280;1730;41.932;25.548;2022-10-16T02:23:35;100089.91;;;8.18;100.00
3434;BME280;1730;41.932;25.548;2022-10-16T02:26:04;99886.91;;;6.80;100.00
3434;BME280;1730;41.932;25.548;2022-10-16T02:28:41;99954.87;;;7.14;100.00
3434;BME280;1730;41.932;25.548;2022-10-16T02:31:10;100169.56;;;8.30;100.00
3434;BME280;1730;41.932;25.548;2022-10-16T02:33:39;99940.09;;;6.97;100.00
3434;BME280;1730;41.932;25.548;2022-10-16T02:36:05;100201.25;;;8.48;100.00
3434;BME280;1730;41.932;25.548;2022-10-16T02:38:32;99820.81;;;6.33;100.00
3434;BME280;1730;41.932;25.548;2022-10-16T02:40:57;100050.56;;;7.48;100.00
3434;BME280;1730;41.932;25.548;2022-10-16T02:43:24;100136.44;;;8.18;100.00
3434;BME280;1730;41.932;25.548;2022-10-16T02:45:51;99717.88;;;5.78;100.00
3434;BME280;1730;41.932;25.548;2022-10-16T02:48:16;99721.78;;;5.62;100.00
3434;BME280;1730;41.932;25.548;2022-10-16T02:50:42;100094.16;;;7.98;100.00
3434;BME280;1730;41.932;25.548;2022-10-16T02:53:07;100197.91;;;8.34;100.00
3434;BME280;1730;41.932;25.548;2022-10-16T02:55:33;100204.03;;;8.36;100.00
3434;BME280;1730;41.932;25.548;2022-10-16T02:57:58;100208.94;;;8.42;100.00
3434;BME280;1730;41.932;25.548;2022-10-16T03:00:24;100205.56;;;8.27;100.00
3434;BME280;1730;41.932;25.548;2022-10-16T03:02:49;100213.53;;;8.29;100.00
3434;BME280;1730;41.932;25.548;2022-10-16T03:05:15;99917.31;;;6.44;100.00
3434;BME280;1730;41.932;25.548;2022-10-16T03:07:41;100092.97;;;7.32;100.00
3434;BME280;1730;41.932;25.548;2022-10-16T03:10:07;100241.91;;;8.33;100.00
3434;BME280;1730;41.932;25.548;2022-10-16T03:12:33;100126.38;;;7.63;100.00
3434;BME280;1730;41.932;25.548;2022-10-16T03:14:58;100220.09;;;8.25;100.00
3434;BME280;1730;41.932;25.548;2022-10-16T03:17:24;100074.37;;;7.29;100.00
3434;BME280;1730;41.932;25.548;2022-10-16T03:19:50;100202.25;;;8.24;100.00
3434;BME280;1730;41.932;25.548;2022-10-16T03:22:16;100221.94;;;8.24;100.00
3434;BME280;1730;41.932;25.548;2022-10-16T03:24:42;100109.94;;;7.44;100.00
3434;BME280;1730;41.932;25.548;2022-10-16T03:27:07;100259.72;;;8.10;100.00
3434;BME280;1730;41.932;25.548;2022-10-16T03:29:33;100250.69;;;8.11;100.00
3434;BME280;1730;41.932;25.548;2022-10-16T03:31:59;100250.03;;;8.07;100.00
3434;BME280;1730;41.932;25.548;2022-10-16T03:34:25;100249.84;;;8.10;100.00
3434;BME280;1730;41.932;25.548;2022-10-16T03:36:51;100259.38;;;8.14;100.00
3434;BME280;1730;41.932;25.548;2022-10-16T03:39:18;100261.44;;;8.11;100.00
3434;BME280;1730;41.932;25.548;2022-10-16T03:41:43;100284.47;;;8.02;100.00
3434;BME280;1730;41.932;25.548;2022-10-16T03:44:09;100185.28;;;7.64;100.00
3434;BME280;1730;41.932;25.548;2022-10-16T03:46:34;100282.56;;;8.39;100.00
3434;BME280;1730;41.932;25.548;2022-10-16T03:49:00;100264.06;;;8.24;100.00
3434;BME280;1730;41.932;25.548;2022-10-16T03:51:25;99989.88;;;6.28;100.00
3434;BME280;1730;41.932;25.548;2022-10-16T03:53:51;100294.34;;;8.26;100.00
3434;BME280;1730;41.932;25.548;2022-10-16T03:56:16;100136.81;;;7.55;100.00
3434;BME280;1730;41.932;25.548;2022-10-16T03:58:42;99901.34;;;6.06;100.00
3434;BME280;1730;41.932;25.548;2022-10-16T04:01:07;100089.50;;;6.83;100.00
3434;BME280;1730;41.932;25.548;2022-10-16T04:03:34;100270.28;;;8.00;100.00
3434;BME280;1730;41.932;25.548;2022-10-16T04:06:00;100098.25;;;7.21;100.00
3434;BME280;1730;41.932;25.548;2022-10-16T04:08:25;100093.38;;;7.15;100.00
3434;BME280;1730;41.932;25.548;2022-10-16T04:10:51;100212.47;;;7.60;100.00
3434;BME280;1730;41.932;25.548;2022-10-16T04:13:16;100288.94;;;8.14;100.00
3434;BME280;1730;41.932;25.548;2022-10-16T04:15:42;100262.41;;;8.34;100.00
3434;BME280;1730;41.932;25.548;2022-10-16T04:18:07;100121.91;;;7.51;100.00
3434;BME280;1730;41.932;25.548;2022-10-16T04:20:33;99889.97;;;6.15;100.00
3434;BME280;1730;41.932;25.548;2022-10-16T04:22:59;100227.25;;;8.13;100.00
3434;BME280;1730;41.932;25.548;2022-10-16T04:25:25;100254.16;;;8.24;100.00
3434;BME280;1730;41.932;25.548;2022-10-16T04:27:53;100044.50;;;6.99;100.00
3434;BME280;1730;41.932;25.548;2022-10-16T04:30:19;100257.37;;;8.05;100.00
3434;BME280;1730;41.932;25.548;2022-10-16T04:32:51;99914.38;;;5.74;100.00
3434;BME280;1730;41.932;25.548;2022-10-16T04:35:18;100299.94;;;7.99;100.00
3434;BME280;1730;41.932;25.548;2022-10-16T04:37:43;100165.19;;;7.22;100.00
3434;BME280;1730;41.932;25.548;2022-10-16T04:40:09;100218.75;;;7.48;100.00
3434;BME280;1730;41.932;25.548;2022-10-16T04:42:34;100125.50;;;6.91;100.00
3434;BME280;1730;41.932;25.548;2022-10-16T04:45:00;100226.81;;;7.48;100.00
3434;BME280;1730;41.932;25.548;2022-10-16T04:47:25;100306.41;;;8.20;100.00
3434;BME280;1730;41.932;25.548;2022-10-16T04:49:51;100176.53;;;7.62;100.00
3434;BME280;1730;41.932;25.548;2022-10-16T04:52:16;100114.34;;;7.21;100.00
3434;BME280;1730;41.932;25.548;2022-10-16T04:54:42;100156.75;;;7.63;100.00
3434;BME280;1730;41.932;25.548;2022-10-16T04:57:10;99969.87;;;6.45;100.00
3434;BME280;1730;41.932;25.548;2022-10-16T04:59:36;100150.22;;;7.79;100.00
3434;BME280;1730;41.932;25.548;2022-10-16T05:02:01;100286.38;;;9.05;100.00
3434;BME280;1730;41.932;25.548;2022-10-16T05:04:27;100088.78;;;8.09;100.00
3434;BME280;1730;41.932;25.548;2022-10-16T05:06:52;99946.81;;;7.60;100.00
3434;BME280;1730;41.932;25.548;2022-10-16T05:09:18;100211.88;;;9.50;100.00
3434;BME280;1730;41.932;25.548;2022-10-16T05:11:43;100192.66;;;9.43;100.00
3434;BME280;1730;41.932;25.548;2022-10-16T05:14:09;100023.50;;;8.64;100.00
3434;BME280;1730;41.932;25.548;2022-10-16T05:16:34;100080.41;;;9.34;100.00
3434;BME280;1730;41.932;25.548;2022-10-16T05:19:00;99852.81;;;8.04;100.00
3434;BME280;1730;41.932;25.548;2022-10-16T05:21:25;99761.59;;;7.82;100.00
3434;BME280;1730;41.932;25.548;2022-10-16T05:23:53;100129.03;;;10.48;100.00
3434;BME280;1730;41.932;25.548;2022-10-16T05:26:19;100102.94;;;10.27;100.00
3434;BME280;1730;41.932;25.548;2022-10-16T05:28:45;100142.75;;;10.65;100.00
3434;BME280;1730;41.932;25.548;2022-10-16T05:31:10;99768.44;;;8.91;100.00
3434;BME280;1730;41.932;25.548;2022-10-16T05:33:36;100123.97;;;11.44;100.00
3434;BME280;1730;41.932;25.548;2022-10-16T05:36:04;99843.34;;;9.77;100.00
3434;BME280;1730;41.932;25.548;2022-10-16T05:38:30;100109.62;;;10.54;100.00
3434;BME280;1730;41.932;25.548;2022-10-16T05:40:55;100141.84;;;10.85;100.00
3434;BME280;1730;41.932;25.548;2022-10-16T05:43:22;100114.66;;;11.08;100.00
3434;BME280;1730;41.932;25.548;2022-10-16T05:45:58;100110.38;;;10.96;100.00
3434;BME280;1730;41.932;25.548;2022-10-16T05:48:25;99825.69;;;9.24;100.00
3434;BME280;1730;41.932;25.548;2022-10-16T05:51:05;100120.91;;;10.68;100.00
3434;BME280;1730;41.932;25.548;2022-10-16T05:53:35;100115.00;;;11.43;100.00
3434;BME280;1730;41.932;25.548;2022-10-16T05:56:01;100130.94;;;11.46;100.00
3434;BME280;1730;41.932;25.548;2022-10-16T05:58:33;100098.72;;;11.73;100.00
3434;BME280;1730;41.932;25.548;2022-10-16T06:01:04;100102.66;;;11.60;100.00
3434;BME280;1730;41.932;25.548;2022-10-16T06:03:30;100098.16;;;11.80;100.00
3434;BME280;1730;41.932;25.548;2022-10-16T06:05:56;100110.09;;;11.96;100.00
3434;BME280;1730;41.932;25.548;2022-10-16T06:08:22;100096.50;;;12.25;100.00
3434;BME280;1730;41.932;25.548;2022-10-16T06:10:48;99777.25;;;10.61;100.00
3434;BME280;1730;41.932;25.548;2022-10-16T06:13:15;99765.25;;;10.93;100.00
3434;BME280;1730;41.932;25.548;2022-10-16T06:15:42;100092.88;;;13.08;100.00
3434;BME280;1730;41.932;25.548;2022-10-16T06:18:08;100096.12;;;12.94;100.00
3434;BME280;1730;41.932;25.548;2022-10-16T06:20:35;99777.41;;;11.16;100.00
3434;BME280;1730;41.932;25.548;2022-10-16T06:23:00;100047.22;;;12.68;100.00
3434;BME280;1730;41.932;25.548;2022-10-16T06:25:26;100105.25;;;12.93;100.00
3434;BME280;1730;41.932;25.548;2022-10-16T06:27:51;99996.25;;;12.46;100.00
3434;BME280;1730;41.932;25.548;2022-10-16T06:30:17;99978.78;;;12.85;100.00
3434;BME280;1730;41.932;25.548;2022-10-16T06:32:42;100083.00;;;13.44;100.00
3434;BME280;1730;41.932;25.548;2022-10-16T06:35:08;100109.03;;;13.54;100.00
3434;BME280;1730;41.932;25.548;2022-10-16T06:37:33;99987.44;;;13.16;100.00
3434;BME280;1730;41.932;25.548;2022-10-16T06:39:59;100099.78;;;14.00;100.00
3434;BME280;1730;41.932;25.548;2022-10-16T06:42:25;99995.63;;;13.42;100.00
3434;BME280;1730;41.932;25.548;2022-10-16T06:44:50;100050.94;;;13.75;100.00
3434;BME280;1730;41.932;25.548;2022-10-16T06:47:16;100114.09;;;14.28;100.00
3434;BME280;1730;41.932;25.548;2022-10-16T06:49:41;100129.31;;;14.39;100.00
3434;BME280;1730;41.932;25.548;2022-10-16T06:52:07;100092.94;;;14.58;100.00
3434;BME280;1730;41.932;25.548;2022-10-16T06:54:32;99805.44;;;13.13;100.00
3434;BME280;1730;41.932;25.548;2022-10-16T06:56:58;100106.16;;;14.86;100.00
3434;BME280;1730;41.932;25.548;2022-10-16T06:59:25;100095.13;;;14.88;100.00
3434;BME280;1730;41.932;25.548;2022-10-16T07:01:50;100108.56;;;15.40;100.00
3434;BME280;1730;41.932;25.548;2022-10-16T07:04:16;100110.84;;;15.52;100.00
3434;BME280;1730;41.932;25.548;2022-10-16T07:06:41;100107.50;;;15.32;100.00
3434;BME280;1730;41.932;25.548;2022-10-16T07:09:09;100098.13;;;15.69;100.00
3434;BME280;1730;41.932;25.548;2022-10-16T07:11:37;100109.66;;;15.63;100.00
3434;BME280;1730;41.932;25.548;2022-10-16T07:14:03;100051.88;;;14.95;100.00
3434;BME280;1730;41.932;25.548;2022-10-16T07:16:30;100094.53;;;15.10;100.00
3434;BME280;1730;41.932;25.548;2022-10-16T07:18:58;100096.59;;;15.66;100.00
3434;BME280;1730;41.932;25.548;2022-10-16T07:21:28;100101.56;;;15.87;100.00
3434;BME280;1730;41.932;25.548;2022-10-16T07:23:56;100086.75;;;15.73;100.00
3434;BME280;1730;41.932;25.548;2022-10-16T07:26:23;100099.13;;;15.60;100.00
3434;BME280;1730;41.932;25.548;2022-10-16T07:28:49;100101.09;;;15.42;100.00
3434;BME280;1730;41.932;25.548;2022-10-16T07:31:17;100093.69;;;15.52;100.00
3434;BME280;1730;41.932;25.548;2022-10-16T07:33:44;100094.94;;;15.31;100.00
3434;BME280;1730;41.932;25.548;2022-10-16T07:36:11;100093.28;;;15.47;100.00
3434;BME280;1730;41.932;25.548;2022-10-16T07:38:37;99919.56;;;14.63;100.00
3434;BME280;1730;41.932;25.548;2022-10-16T07:41:06;99881.78;;;14.85;100.00
3434;BME280;1730;41.932;25.548;2022-10-16T07:43:32;100078.78;;;15.96;100.00
3434;BME280;1730;41.932;25.548;2022-10-16T07:45:58;99995.47;;;15.63;100.00
3434;BME280;1730;41.932;25.548;2022-10-16T07:48:26;99981.22;;;15.61;100.00
3434;BME280;1730;41.932;25.548;2022-10-16T07:50:52;100077.91;;;16.12;100.00
3434;BME280;1730;41.932;25.548;2022-10-16T07:53:17;100007.03;;;15.73;100.00
3434;BME280;1730;41.932;25.548;2022-10-16T07:55:43;100089.81;;;15.95;100.00
3434;BME280;1730;41.932;25.548;2022-10-16T07:58:08;100083.63;;;16.41;100.00
3434;BME280;1730;41.932;25.548;2022-10-16T08:00:35;100079.91;;;16.34;100.00
3434;BME280;1730;41.932;25.548;2022-10-16T08:03:01;100072.56;;;16.51;100.00
3434;BME280;1730;41.932;25.548;2022-10-16T08:05:31;100071.81;;;16.81;100.00
3434;BME280;1730;41.932;25.548;2022-10-16T08:07:57;100070.31;;;17.18;100.00
3434;BME280;1730;41.932;25.548;2022-10-16T08:10:25;100073.84;;;16.87;100.00
3434;BME280;1730;41.932;25.548;2022-10-16T08:12:51;100061.47;;;16.68;100.00
3434;BME280;1730;41.932;25.548;2022-10-16T08:15:18;100085.56;;;16.96;100.00
3434;BME280;1730;41.932;25.548;2022-10-16T08:17:43;100066.50;;;16.96;100.00
3434;BME280;1730;41.932;25.548;2022-10-16T08:20:09;100069.94;;;17.21;100.00
3434;BME280;1730;41.932;25.548;2022-10-16T08:22:35;99981.75;;;16.36;100.00
3434;BME280;1730;41.932;25.548;2022-10-16T08:25:00;100076.34;;;17.36;100.00
3434;BME280;1730;41.932;25.548;2022-10-16T08:27:31;100078.28;;;17.27;100.00
3434;BME280;1730;41.932;25.548;2022-10-16T08:29:57;100082.34;;;17.62;100.00
3434;BME280;1730;41.932;25.548;2022-10-16T08:32:22;100054.84;;;17.41;100.00
3434;BME280;1730;41.932;25.548;2022-10-16T08:34:48;100087.56;;;17.41;100.00
3434;BME280;1730;41.932;25.548;2022-10-16T08:37:14;99982.47;;;17.07;100.00
3434;BME280;1730;41.932;25.548;2022-10-16T08:39:39;100080.50;;;17.85;100.00
3434;BME280;1730;41.932;25.548;2022-10-16T08:45:16;100078.97;;;17.52;100.00
3434;BME280;1730;41.932;25.548;2022-10-16T08:47:48;100078.94;;;17.83;99.16
3434;BME280;1730;41.932;25.548;2022-10-16T08:50:23;100083.50;;;17.68;100.00
3434;BME280;1730;41.932;25.548;2022-10-16T08:52:49;100073.34;;;17.53;99.94
3434;BME280;1730;41.932;25.548;2022-10-16T08:55:41;99968.69;;;17.32;95.74
3434;BME280;1730;41.932;25.548;2022-10-16T08:58:13;100059.41;;;17.48;94.12
3434;BME280;1730;41.932;25.548;2022-10-16T09:00:40;99984.59;;;17.43;92.07
3434;BME280;1730;41.932;25.548;2022-10-16T09:03:30;100075.06;;;18.52;85.13
3434;BME280;1730;41.932;25.548;2022-10-16T09:06:31;100070.03;;;18.64;82.38
3434;BME280;1730;41.932;25.548;2022-10-16T09:09:27;100064.78;;;17.56;90.23
3434;BME280;1730;41.932;25.548;2022-10-16T09:12:10;100066.22;;;17.75;89.96
3434;BME280;1730;41.932;25.548;2022-10-16T09:19:59;100073.09;;;18.09;87.87
3434;BME280;1730;41.932;25.548;2022-10-16T09:22:29;100061.72;;;17.82;87.67
3434;BME280;1730;41.932;25.548;2022-10-16T09:25:00;100071.53;;;18.66;85.08
3434;BME280;1730;41.932;25.548;2022-10-16T09:27:35;99972.59;;;18.27;80.81
3434;BME280;1730;41.932;25.548;2022-10-16T09:30:01;100062.03;;;18.62;79.49
3434;BME280;1730;41.932;25.548;2022-10-16T09:32:34;100075.25;;;18.36;83.40
3434;BME280;1730;41.932;25.548;2022-10-16T09:35:00;100061.72;;;18.42;82.33
3434;BME280;1730;41.932;25.548;2022-10-16T09:37:27;99969.56;;;17.92;81.87
3434;BME280;1730;41.932;25.548;2022-10-16T09:39:54;100064.78;;;18.77;75.94
3434;BME280;1730;41.932;25.548;2022-10-16T09:42:27;100061.37;;;19.04;73.36
3434;BME280;1730;41.932;25.548;2022-10-16T09:44:56;100063.63;;;18.57;76.45
3434;BME280;1730;41.932;25.548;2022-10-16T09:47:26;100043.28;;;18.59;75.58
3434;BME280;1730;41.932;25.548;2022-10-16T09:50:05;100048.91;;;19.02;74.42
3434;BME280;1730;41.932;25.548;2022-10-16T09:52:44;100050.91;;;19.08;74.86
3434;BME280;1730;41.932;25.548;2022-10-16T09:55:15;100046.63;;;19.05;73.63
3434;BME280;1730;41.932;25.548;2022-10-16T09:57:53;100040.72;;;19.52;70.56
3434;BME280;1730;41.932;25.548;2022-10-16T10:00:21;100028.28;;;18.84;73.84
3434;BME280;1730;41.932;25.548;2022-10-16T10:02:47;100044.63;;;19.14;70.94
3434;BME280;1730;41.932;25.548;2022-10-16T10:05:27;100039.47;;;19.40;67.04
3434;BME280;1730;41.932;25.548;2022-10-16T10:07:57;100040.56;;;19.24;66.23
3434;BME280;1730;41.932;25.548;2022-10-16T10:10:33;100044.78;;;18.62;69.17
3434;BME280;1730;41.932;25.548;2022-10-16T10:13:01;99959.12;;;18.69;67.03
3434;BME280;1730;41.932;25.548;2022-10-16T10:15:29;100055.44;;;19.72;61.95
3434;BME280;1730;41.932;25.548;2022-10-16T10:17:58;100007.88;;;19.52;62.29
3434;BME280;1730;41.932;25.548;2022-10-16T10:20:27;100023.91;;;19.76;60.97
3434;BME280;1730;41.932;25.548;2022-10-16T10:22:54;100032.88;;;19.70;58.94
3434;BME280;1730;41.932;25.548;2022-10-16T10:25:42;100029.88;;;19.44;58.91
3434;BME280;1730;41.932;25.548;2022-10-16T10:39:01;100022.16;;;19.69;54.59
3434;BME280;1730;41.932;25.548;2022-10-16T10:44:28;100022.78;;;19.71;54.82
3434;BME280;1730;41.932;25.548;2022-10-16T10:52:31;100019.16;;;19.64;58.36
3434;BME280;1730;41.932;25.548;2022-10-16T10:58:16;99840.41;;;19.14;55.05
3434;BME280;1730;41.932;25.548;2022-10-16T11:01:09;99997.03;;;20.14;55.26
3434;BME280;1730;41.932;25.548;2022-10-16T11:06:09;99991.06;;;19.55;53.93
3434;BME280;1730;41.932;25.548;2022-10-16T11:08:47;99992.81;;;20.12;50.42
3434;BME280;1730;41.932;25.548;2022-10-16T11:11:19;99998.97;;;19.65;50.59
3434;BME280;1730;41.932;25.548;2022-10-16T11:13:57;99995.38;;;19.64;51.63
3434;BME280;1730;41.932;25.548;2022-10-16T11:16:31;99879.16;;;18.97;53.53
3434;BME280;1730;41.932;25.548;2022-10-16T11:22:00;99991.66;;;20.49;50.29
3434;BME280;1730;41.932;25.548;2022-10-16T11:24:44;99983.34;;;20.77;49.43
3434;BME280;1730;41.932;25.548;2022-10-16T11:27:15;99647.25;;;18.23;49.27
3434;BME280;1730;41.932;25.548;2022-10-16T11:29:58;99986.91;;;20.36;48.37
3434;BME280;1730;41.932;25.548;2022-10-16T11:32:35;99979.97;;;20.12;47.82
3434;BME280;1730;41.932;25.548;2022-10-16T11:35:11;99892.72;;;19.47;48.21
3434;BME280;1730;41.932;25.548;2022-10-16T11:37:43;99972.75;;;20.33;48.33
3434;BME280;1730;41.932;25.548;2022-10-16T11:40:23;99973.94;;;20.23;48.78
3434;BME280;1730;41.932;25.548;2022-10-16T11:42:58;99979.00;;;20.48;48.30
3434;BME280;1730;41.932;25.548;2022-10-16T11:45:32;99975.06;;;20.63;46.27
3434;BME280;1730;41.932;25.548;2022-10-16T11:48:12;99981.88;;;20.81;45.53
3434;BME280;1730;41.932;25.548;2022-10-16T11:50:52;99972.13;;;20.72;44.94
3434;BME280;1730;41.932;25.548;2022-10-16T11:56:42;99976.06;;;20.28;46.37
3434;BME280;1730;41.932;25.548;2022-10-16T12:02:23;99986.00;;;20.29;44.80
3434;BME280;1730;41.932;25.548;2022-10-16T12:07:51;99846.66;;;19.78;43.51
3434;BME280;1730;41.932;25.548;2022-10-16T12:10:25;99912.53;;;20.05;43.16
3434;BME280;1730;41.932;25.548;2022-10-16T12:12:52;99954.69;;;20.86;42.21
3434;BME280;1730;41.932;25.548;2022-10-16T12:15:19;99979.44;;;20.99;42.25
3434;BME280;1730;41.932;25.548;2022-10-16T12:17:46;99978.06;;;21.23;41.47
3434;BME280;1730;41.932;25.548;2022-10-16T12:22:50;99974.44;;;20.68;42.84
3434;BME280;1730;41.932;25.548;2022-10-16T12:28:19;100001.91;;;20.81;42.78
3434;BME280;1730;41.932;25.548;2022-10-16T12:30:52;99879.75;;;20.59;42.22
3434;BME280;1730;41.932;25.548;2022-10-16T12:33:24;99853.75;;;20.01;43.22
3434;BME280;1730;41.932;25.548;2022-10-16T12:35:50;99989.41;;;20.65;43.43
3434;BME280;1730;41.932;25.548;2022-10-16T12:38:45;99878.44;;;20.48;42.71
3434;BME280;1730;41.932;25.548;2022-10-16T12:41:12;99996.13;;;21.04;41.61
3434;BME280;1730;41.932;25.548;2022-10-16T12:43:42;99995.22;;;21.51;40.36
3434;BME280;1730;41.932;25.548;2022-10-16T12:48:34;99992.44;;;21.31;39.77
3434;BME280;1730;41.932;25.548;2022-10-16T12:51:25;100011.28;;;21.47;39.80
3434;BME280;1730;41.932;25.548;2022-10-16T13:20:35;99986.97;;;20.84;41.64
3434;BME280;1730;41.932;25.548;2022-10-16T13:23:29;99937.78;;;20.76;41.54
3434;BME280;1730;41.932;25.548;2022-10-16T13:26:13;100000.66;;;21.18;41.19
3434;BME280;1730;41.932;25.548;2022-10-16T13:28:42;99987.38;;;21.35;40.81
3434;BME280;1730;41.932;25.548;2022-10-16T13:31:20;99982.31;;;21.38;40.94
3434;BME280;1730;41.932;25.548;2022-10-16T13:33:51;99781.09;;;19.70;41.36
3434;BME280;1730;41.932;25.548;2022-10-16T13:36:34;99951.81;;;21.00;41.56
3434;BME280;1730;41.932;25.548;2022-10-16T13:39:10;99985.56;;;21.01;41.78
3434;BME280;1730;41.932;25.548;2022-10-16T13:41:37;99990.41;;;20.99;42.30
3434;BME280;1730;41.932;25.548;2022-10-16T13:44:03;99873.81;;;20.49;41.68
3434;BME280;1730;41.932;25.548;2022-10-16T13:46:30;99960.75;;;20.68;42.30
3434;BME280;1730;41.932;25.548;2022-10-16T13:49:05;99980.88;;;20.88;42.23
3434;BME280;1730;41.932;25.548;2022-10-16T13:51:36;99897.44;;;20.56;41.48
3434;BME280;1730;41.932;25.548;2022-10-16T13:54:02;99927.66;;;20.76;41.54
3434;BME280;1730;41.932;25.548;2022-10-16T13:56:30;100002.78;;;20.82;41.51
3434;BME280;1730;41.932;25.548;2022-10-16T13:59:20;99986.63;;;21.00;41.44
3434;BME280;1730;41.932;25.548;2022-10-16T14:01:48;99988.88;;;20.83;41.45
3434;BME280;1730;41.932;25.548;2022-10-16T14:04:14;99998.81;;;20.91;41.66
3434;BME280;1730;41.932;25.548;2022-10-16T14:06:42;99944.72;;;20.65;41.72
3434;BME280;1730;41.932;25.548;2022-10-16T14:09:26;99999.03;;;20.96;40.88
3434;BME280;1730;41.932;25.548;2022-10-16T14:12:06;99673.13;;;18.98;40.76
3434;BME280;1730;41.932;25.548;2022-10-16T14:14:45;99961.78;;;20.67;40.26
3434;BME280;1730;41.932;25.548;2022-10-16T14:17:16;99986.94;;;20.77;40.62
3434;BME280;1730;41.932;25.548;2022-10-16T14:19:46;99999.19;;;20.81;40.44
3434;BME280;1730;41.932;25.548;2022-10-16T14:24:48;99905.81;;;19.79;40.82
3434;BME280;1730;41.932;25.548;2022-10-16T14:27:34;99902.56;;;19.97;40.99
3434;BME280;1730;41.932;25.548;2022-10-16T14:30:21;99939.78;;;20.19;40.52
3434;BME280;1730;41.932;25.548;2022-10-16T14:33:04;99991.78;;;20.41;40.59
3434;BME280;1730;41.932;25.548;2022-10-16T14:35:33;99882.84;;;19.74;40.39
3434;BME280;1730;41.932;25.548;2022-10-16T14:38:01;99997.50;;;20.46;40.32
3434;BME280;1730;41.932;25.548;2022-10-16T14:40:30;100010.16;;;20.19;41.13
3434;BME280;1730;41.932;25.548;2022-10-16T14:42:57;99912.84;;;19.61;41.16
3434;BME280;1730;41.932;25.548;2022-10-16T14:45:28;100034.09;;;20.10;41.30
3434;BME280;1730;41.932;25.548;2022-10-16T14:48:14;100042.72;;;20.07;41.81
3434;BME280;1730;41.932;25.548;2022-10-16T14:50:41;99994.22;;;20.01;42.03
3434;BME280;1730;41.932;25.548;2022-10-16T14:53:11;100010.78;;;19.93;42.88
3434;BME280;1730;41.932;25.548;2022-10-16T14:55:38;100009.47;;;19.89;42.95